Time;durP1;ratioP1;P1;durP2;ratioP2;P2;SDS_P1;SDS_P2;PMS_P1;PMS_P2;Temp;Humidity;BMP_temperature;BMP_pressure;BME280_temperature;BME280_humidity;BME280_pressure;Samples;Min_cycle;Max_cycle;Signal;HPM_P1;HPM_P2
2023/07/16 00:01:15;;;;;;;;;;;21.10;99.90;;;;;;5125656;28;19919;-69
2023/07/16 00:03:42;;;;;;;;;;;21.10;99.90;;;;;;5125877;28;20215;-69
2023/07/16 00:06:09;;;;;;;;;;;21.10;99.90;;;;;;5125953;28;19994;-69
2023/07/16 00:08:35;;;;;;;;;;;21.10;99.90;;;;;;5116051;28;19921;-73
2023/07/16 00:11:04;;;;;;;;;;;21.10;99.90;;;;;;5104029;28;19927;-69
2023/07/16 00:13:30;;;;;;;;;;;21.10;99.90;;;;;;5104649;28;19926;-70
2023/07/16 00:15:57;;;;;;;;;;;21.10;99.90;;;;;;5106904;28;19942;-69
2023/07/16 00:18:25;;;;;;;;;;;21.10;99.90;;;;;;5125916;28;19986;-69
2023/07/16 00:20:51;;;;;;;;;;;21.10;99.90;;;;;;5125303;28;19920;-70
2023/07/16 00:23:18;;;;;;;;;;;21.00;99.90;;;;;;5126061;28;19920;-69
2023/07/16 00:25:45;;;;;;;;;;;21.00;99.90;;;;;;5125454;28;20286;-68
2023/07/16 00:28:12;;;;;;;;;;;21.00;99.90;;;;;;5125937;28;19955;-70
2023/07/16 00:30:39;;;;;;;;;;;21.00;99.90;;;;;;5125279;28;19920;-69
2023/07/16 00:33:05;;;;;;;;;;;21.00;99.90;;;;;;5117323;28;19956;-69
2023/07/16 00:35:33;;;;;;;;;;;20.90;99.90;;;;;;5110015;28;20360;-69
2023/07/16 00:38:00;;;;;;;;;;;20.90;99.90;;;;;;5123645;28;19926;-69
2023/07/16 00:40:26;;;;;;;;;;;20.80;99.90;;;;;;5123974;28;19979;-69
2023/07/16 00:42:53;;;;;;;;;;;20.70;99.90;;;;;;5124920;28;19920;-70
2023/07/16 00:45:20;;;;;;;;;;;20.60;99.90;;;;;;5124353;28;19927;-68
2023/07/16 00:47:46;;;;;;;;;;;20.40;99.90;;;;;;5125548;28;19950;-69
2023/07/16 00:50:13;;;;;;;;;;;20.30;99.90;;;;;;5124286;28;19928;-70
2023/07/16 00:52:41;;;;;;;;;;;20.10;99.90;;;;;;5125188;28;19920;-69
2023/07/16 00:55:08;;;;;;;;;;;20.00;99.90;;;;;;5107305;28;19951;-69
2023/07/16 00:57:35;;;;;;;;;;;19.90;99.90;;;;;;5125309;28;19919;-70
2023/07/16 01:00:02;;;;;;;;;;;19.80;99.90;;;;;;5124601;28;19962;-69
2023/07/16 01:02:28;;;;;;;;;;;19.70;99.90;;;;;;5124802;28;20211;-69
2023/07/16 01:04:55;;;;;;;;;;;19.60;99.90;;;;;;5125067;28;19982;-69
2023/07/16 01:07:24;;;;;;;;;;;19.60;99.90;;;;;;5124888;28;19987;-69
2023/07/16 01:09:54;;;;;;;;;;;19.50;99.90;;;;;;5124988;28;19920;-72
2023/07/16 01:12:21;;;;;;;;;;;19.40;99.90;;;;;;5124864;28;19957;-69
2023/07/16 01:14:48;;;;;;;;;;;19.40;99.90;;;;;;5124510;28;20207;-69
2023/07/16 01:17:15;;;;;;;;;;;19.30;99.90;;;;;;5124330;28;19919;-69
2023/07/16 01:19:41;;;;;;;;;;;19.30;99.90;;;;;;5124977;28;19934;-68
2023/07/16 01:22:17;;;;;;;;;;;19.20;99.90;;;;;;5123675;28;19958;-69
2023/07/16 01:24:54;;;;;;;;;;;19.20;99.90;;;;;;5124557;28;20114;-69
2023/07/16 01:27:35;;;;;;;;;;;19.20;99.90;;;;;;5124977;28;19926;-69
2023/07/16 01:30:03;;;;;;;;;;;19.20;99.90;;;;;;5124290;28;19926;-69
2023/07/16 01:32:31;;;;;;;;;;;19.20;99.90;;;;;;5124239;28;20231;-69
2023/07/16 01:34:58;;;;;;;;;;;19.20;99.90;;;;;;5123191;28;19920;-69
2023/07/16 01:37:25;;;;;;;;;;;19.20;99.90;;;;;;5104149;28;19920;-69
2023/07/16 01:39:51;;;;;;;;;;;19.20;99.90;;;;;;5142667;27;20122;-69
2023/07/16 01:42:18;;;;;;;;;;;19.20;99.90;;;;;;5132886;27;19983;-69
2023/07/16 01:44:44;;;;;;;;;;;19.30;99.90;;;;;;5124250;28;19926;-69
2023/07/16 01:47:14;;;;;;;;;;;19.30;99.90;;;;;;5124439;28;19926;-69
2023/07/16 01:49:41;;;;;;;;;;;19.30;99.90;;;;;;5124356;28;19987;-69
2023/07/16 01:52:08;;;;;;;;;;;19.30;99.90;;;;;;5123723;28;19919;-69
2023/07/16 01:54:35;;;;;;;;;;;19.30;99.90;;;;;;5123984;28;20204;-69
2023/07/16 01:57:02;;;;;;;;;;;19.40;99.90;;;;;;5123755;28;19926;-69
2023/07/16 01:59:28;;;;;;;;;;;19.40;99.90;;;;;;5123996;28;20259;-69
2023/07/16 02:01:55;;;;;;;;;;;19.40;99.90;;;;;;5123782;28;19988;-70
2023/07/16 02:04:23;;;;;;;;;;;19.40;99.90;;;;;;5124348;28;19979;-69
2023/07/16 02:06:50;;;;;;;;;;;19.40;99.90;;;;;;5123670;28;19919;-68
2023/07/16 02:09:16;;;;;;;;;;;19.40;99.90;;;;;;5123933;28;19958;-69
2023/07/16 02:11:43;;;;;;;;;;;19.40;99.90;;;;;;5112237;28;19979;-69
2023/07/16 02:14:09;;;;;;;;;;;19.40;99.90;;;;;;5103715;28;20140;-69
2023/07/16 02:16:36;;;;;;;;;;;19.40;99.90;;;;;;5103621;28;19987;-70
2023/07/16 02:19:03;;;;;;;;;;;19.40;99.90;;;;;;5113329;28;19920;-70
2023/07/16 02:21:31;;;;;;;;;;;19.40;99.90;;;;;;5111878;28;19955;-70
2023/07/16 02:23:57;;;;;;;;;;;19.40;99.90;;;;;;5126935;28;20185;-70
2023/07/16 02:26:24;;;;;;;;;;;19.40;99.90;;;;;;5128581;28;19957;-69
2023/07/16 02:28:50;;;;;;;;;;;19.40;99.90;;;;;;5128159;28;19987;-69
2023/07/16 02:31:17;;;;;;;;;;;19.40;99.90;;;;;;5127673;28;19979;-69
2023/07/16 02:33:44;;;;;;;;;;;19.40;99.90;;;;;;5127851;28;20232;-69
2023/07/16 02:36:10;;;;;;;;;;;19.30;99.90;;;;;;5129148;28;20140;-70
2023/07/16 02:38:39;;;;;;;;;;;19.30;99.90;;;;;;5128833;28;19983;-69
2023/07/16 02:41:05;;;;;;;;;;;19.30;99.90;;;;;;5128146;28;19920;-69
2023/07/16 02:43:32;;;;;;;;;;;19.30;99.90;;;;;;5128326;28;19968;-69
2023/07/16 02:45:58;;;;;;;;;;;19.20;99.90;;;;;;5127708;28;19942;-69
2023/07/16 02:48:25;;;;;;;;;;;19.20;99.90;;;;;;5127800;28;19919;-69
2023/07/16 02:50:52;;;;;;;;;;;19.20;99.90;;;;;;5126956;28;19932;-69
2023/07/16 02:53:18;;;;;;;;;;;19.20;99.90;;;;;;5127436;28;20271;-69
2023/07/16 02:55:47;;;;;;;;;;;19.20;99.90;;;;;;5127626;28;19926;-70
2023/07/16 02:58:14;;;;;;;;;;;19.20;99.90;;;;;;5127693;28;19920;-68
2023/07/16 03:00:40;;;;;;;;;;;19.10;99.90;;;;;;5127042;28;19927;-68
2023/07/16 03:03:07;;;;;;;;;;;19.10;99.90;;;;;;5127740;28;19987;-69
2023/07/16 03:05:33;;;;;;;;;;;19.10;99.90;;;;;;5127326;28;19942;-69
2023/07/16 03:08:00;;;;;;;;;;;19.10;99.90;;;;;;5127650;28;20261;-69
2023/07/16 03:10:27;;;;;;;;;;;19.10;99.90;;;;;;5127001;28;20166;-69
2023/07/16 03:12:55;;;;;;;;;;;19.10;99.90;;;;;;5127498;28;19919;-70
2023/07/16 03:15:21;;;;;;;;;;;19.00;99.90;;;;;;5127287;28;19919;-70
2023/07/16 03:17:48;;;;;;;;;;;18.90;99.90;;;;;;5127411;28;20162;-69
2023/07/16 03:20:15;;;;;;;;;;;18.90;99.90;;;;;;5126710;28;19919;-69
2023/07/16 03:22:41;;;;;;;;;;;18.80;99.90;;;;;;5109625;28;19983;-69
2023/07/16 03:25:08;;;;;;;;;;;18.70;99.90;;;;;;5110522;28;19983;-69
2023/07/16 03:27:35;;;;;;;;;;;18.60;99.90;;;;;;5127058;28;19919;-69
2023/07/16 03:30:04;;;;;;;;;;;18.50;99.90;;;;;;5126607;28;19926;-69
2023/07/16 03:32:30;;;;;;;;;;;18.40;99.90;;;;;;5127778;28;19920;-69
2023/07/16 03:34:57;;;;;;;;;;;18.30;99.90;;;;;;5127282;28;19926;-70
2023/07/16 03:37:23;;;;;;;;;;;18.20;99.90;;;;;;5135363;27;19920;-69
2023/07/16 03:39:50;;;;;;;;;;;18.10;99.90;;;;;;5134564;27;19919;-69
2023/07/16 03:42:17;;;;;;;;;;;18.10;99.90;;;;;;5126500;28;19978;-69
2023/07/16 03:44:43;;;;;;;;;;;18.00;99.90;;;;;;5126789;28;19919;-74
2023/07/16 03:47:11;;;;;;;;;;;18.00;99.90;;;;;;5126573;28;19919;-69
2023/07/16 03:49:38;;;;;;;;;;;17.80;99.90;;;;;;5126865;28;19919;-69
2023/07/16 03:52:05;;;;;;;;;;;17.80;99.90;;;;;;5126013;28;19927;-70
2023/07/16 03:54:32;;;;;;;;;;;17.80;99.90;;;;;;5126396;28;20179;-69
2023/07/16 03:56:58;;;;;;;;;;;17.70;99.90;;;;;;5126224;28;19926;-69
2023/07/16 03:59:25;;;;;;;;;;;17.70;99.90;;;;;;5126424;28;19919;-69
2023/07/16 04:01:51;;;;;;;;;;;17.60;99.90;;;;;;5125837;28;19983;-69
2023/07/16 04:04:19;;;;;;;;;;;17.60;99.90;;;;;;5126244;28;19982;-69
2023/07/16 04:06:46;;;;;;;;;;;17.60;99.90;;;;;;5126311;28;19926;-70
2023/07/16 04:09:13;;;;;;;;;;;17.60;99.90;;;;;;5126106;28;19926;-69
2023/07/16 04:11:39;;;;;;;;;;;17.60;99.90;;;;;;5125746;28;19920;-70
2023/07/16 04:14:06;;;;;;;;;;;17.60;99.90;;;;;;5125987;28;19919;-70
2023/07/16 04:16:32;;;;;;;;;;;17.60;99.90;;;;;;5126102;28;19942;-69
2023/07/16 04:18:59;;;;;;;;;;;17.60;99.90;;;;;;5126318;28;19986;-69
2023/07/16 04:21:27;;;;;;;;;;;17.60;99.90;;;;;;5120210;28;19983;-69
2023/07/16 04:23:53;;;;;;;;;;;17.60;99.90;;;;;;5105518;28;20267;-70
2023/07/16 04:26:20;;;;;;;;;;;17.70;99.90;;;;;;5105379;28;19920;-69
2023/07/16 04:28:47;;;;;;;;;;;17.70;99.90;;;;;;5105579;28;19926;-69
2023/07/16 04:31:13;;;;;;;;;;;17.70;99.90;;;;;;5104962;28;19983;-69
2023/07/16 04:33:40;;;;;;;;;;;17.70;99.90;;;;;;5105182;28;20282;-69
2023/07/16 04:36:06;;;;;;;;;;;17.70;99.90;;;;;;5105365;28;19926;-71
2023/07/16 04:38:34;;;;;;;;;;;17.70;99.90;;;;;;5105153;28;19927;-70
2023/07/16 04:41:01;;;;;;;;;;;17.80;99.90;;;;;;5104807;28;19983;-70
2023/07/16 04:43:28;;;;;;;;;;;17.80;99.90;;;;;;5105505;28;19920;-70
2023/07/16 04:45:54;;;;;;;;;;;17.80;99.90;;;;;;5105092;28;19920;-69
2023/07/16 04:48:21;;;;;;;;;;;17.90;99.90;;;;;;5105309;28;19987;-72
2023/07/16 04:50:47;;;;;;;;;;;17.90;99.90;;;;;;5104479;28;19995;-69
2023/07/16 04:53:17;;;;;;;;;;;18.00;99.90;;;;;;5132900;27;19942;-70
2023/07/16 04:55:45;;;;;;;;;;;18.00;99.90;;;;;;5143222;27;19920;-69
2023/07/16 04:58:12;;;;;;;;;;;18.00;99.90;;;;;;5146121;27;19920;-69
2023/07/16 05:00:38;;;;;;;;;;;18.00;99.90;;;;;;5126266;27;19926;-69
2023/07/16 05:03:05;;;;;;;;;;;18.10;99.90;;;;;;5138047;27;19955;-70
2023/07/16 05:05:32;;;;;;;;;;;18.10;99.90;;;;;;5145786;27;19926;-70
2023/07/16 05:07:58;;;;;;;;;;;18.10;99.90;;;;;;5145820;27;19993;-70
2023/07/16 05:10:25;;;;;;;;;;;18.10;99.90;;;;;;5144963;27;19994;-70
2023/07/16 05:12:53;;;;;;;;;;;18.00;99.90;;;;;;5145582;27;19920;-70
2023/07/16 05:15:19;;;;;;;;;;;18.10;99.90;;;;;;5145595;27;19920;-69
2023/07/16 05:17:46;;;;;;;;;;;18.10;99.90;;;;;;5145513;27;19942;-70
2023/07/16 05:20:13;;;;;;;;;;;18.10;99.90;;;;;;5144878;27;19970;-69
2023/07/16 05:22:39;;;;;;;;;;;18.00;99.90;;;;;;5131074;27;19951;-69
2023/07/16 05:25:06;;;;;;;;;;;18.10;99.90;;;;;;5124714;28;20162;-70
2023/07/16 05:27:33;;;;;;;;;;;18.10;99.90;;;;;;5124788;28;19995;-70
2023/07/16 05:30:01;;;;;;;;;;;18.10;99.90;;;;;;5124374;28;19920;-69
2023/07/16 05:32:27;;;;;;;;;;;18.00;99.90;;;;;;5104383;28;19920;-69
2023/07/16 05:34:54;;;;;;;;;;;18.10;99.90;;;;;;5104116;28;19983;-70
2023/07/16 05:37:21;;;;;;;;;;;18.10;99.90;;;;;;5104697;28;20115;-70
2023/07/16 05:39:47;;;;;;;;;;;18.10;99.90;;;;;;5104337;28;19920;-69
2023/07/16 05:42:14;;;;;;;;;;;18.10;99.90;;;;;;5103705;28;19926;-70
2023/07/16 05:44:41;;;;;;;;;;;18.10;99.90;;;;;;5103962;28;20127;-70
2023/07/16 05:47:09;;;;;;;;;;;18.10;99.90;;;;;;5105357;28;19927;-70
2023/07/16 05:49:36;;;;;;;;;;;18.20;99.90;;;;;;5124516;28;19951;-69
2023/07/16 05:52:03;;;;;;;;;;;18.10;99.90;;;;;;5120678;28;19919;-69
2023/07/16 05:54:30;;;;;;;;;;;18.10;99.90;;;;;;5124241;28;19919;-70
2023/07/16 05:56:57;;;;;;;;;;;18.10;99.90;;;;;;5124041;28;19926;-69
2023/07/16 05:59:23;;;;;;;;;;;18.20;99.90;;;;;;5124436;28;19926;-71
2023/07/16 06:01:50;;;;;;;;;;;18.10;99.90;;;;;;5123062;28;19919;-70
2023/07/16 06:04:18;;;;;;;;;;;18.10;99.90;;;;;;5124349;28;19919;-70
2023/07/16 06:06:44;;;;;;;;;;;18.00;99.90;;;;;;5123926;28;19919;-70
2023/07/16 06:09:11;;;;;;;;;;;18.00;99.90;;;;;;5123547;28;20231;-69
2023/07/16 06:11:38;;;;;;;;;;;18.10;99.90;;;;;;5123673;28;19926;-69
2023/07/16 06:14:04;;;;;;;;;;;18.10;99.90;;;;;;5124311;28;19926;-70
2023/07/16 06:16:31;;;;;;;;;;;17.90;99.90;;;;;;5124089;28;19962;-69
2023/07/16 06:18:57;;;;;;;;;;;18.00;99.90;;;;;;5124362;28;20111;-70
2023/07/16 06:21:25;;;;;;;;;;;18.00;99.90;;;;;;5123471;28;19919;-70
2023/07/16 06:23:52;;;;;;;;;;;18.00;99.90;;;;;;5110492;28;20081;-69
2023/07/16 06:26:19;;;;;;;;;;;18.00;99.90;;;;;;5124028;28;19979;-70
2023/07/16 06:28:49;;;;;;;;;;;18.00;99.90;;;;;;5123981;28;19955;-69
2023/07/16 06:31:15;;;;;;;;;;;18.00;99.90;;;;;;5123549;28;19926;-69
2023/07/16 06:33:42;;;;;;;;;;;18.10;99.90;;;;;;5123676;28;20286;-69
2023/07/16 06:36:08;;;;;;;;;;;18.10;99.90;;;;;;5123764;28;19994;-68
2023/07/16 06:38:36;;;;;;;;;;;18.10;99.90;;;;;;5123889;28;19988;-71
2023/07/16 06:41:03;;;;;;;;;;;18.20;99.90;;;;;;5123214;28;19920;-69
2023/07/16 06:43:29;;;;;;;;;;;18.10;99.90;;;;;;5124083;28;19983;-71
2023/07/16 06:45:56;;;;;;;;;;;18.20;99.90;;;;;;5123880;28;19920;-70
2023/07/16 06:48:23;;;;;;;;;;;18.20;99.90;;;;;;5123854;28;19962;-71
2023/07/16 06:50:50;;;;;;;;;;;18.20;99.90;;;;;;5123258;28;20012;-70
2023/07/16 06:53:17;;;;;;;;;;;18.20;99.90;;;;;;5104829;28;20253;-67
2023/07/16 06:55:45;;;;;;;;;;;18.20;99.90;;;;;;5103287;28;19967;-68
2023/07/16 06:58:12;;;;;;;;;;;18.10;99.90;;;;;;5103579;28;19920;-69
2023/07/16 07:00:38;;;;;;;;;;;18.10;99.90;;;;;;5102844;28;19920;-72
2023/07/16 07:03:05;;;;;;;;;;;18.10;99.90;;;;;;5103526;28;19988;-69
2023/07/16 07:05:32;;;;;;;;;;;18.10;99.90;;;;;;5103214;28;19951;-68
2023/07/16 07:07:58;;;;;;;;;;;18.10;99.90;;;;;;5103314;28;20111;-69
2023/07/16 07:10:25;;;;;;;;;;;18.10;99.90;;;;;;5102626;28;19994;-69
2023/07/16 07:12:53;;;;;;;;;;;18.10;99.90;;;;;;5103255;28;19987;-69
2023/07/16 07:15:19;;;;;;;;;;;18.10;99.90;;;;;;5106010;28;20172;-70
2023/07/16 07:17:46;;;;;;;;;;;18.10;99.90;;;;;;5106539;28;19963;-69
2023/07/16 07:20:13;;;;;;;;;;;18.20;99.90;;;;;;5106292;28;19950;-69
2023/07/16 07:22:40;;;;;;;;;;;18.20;99.90;;;;;;5106514;28;19982;-69
2023/07/16 07:25:07;;;;;;;;;;;18.30;99.90;;;;;;5106487;28;19927;-68
2023/07/16 07:27:34;;;;;;;;;;;18.30;99.90;;;;;;5106408;28;19920;-68
2023/07/16 07:30:01;;;;;;;;;;;18.40;99.90;;;;;;5106124;28;19955;-68
2023/07/16 07:32:30;;;;;;;;;;;18.40;99.90;;;;;;5123232;27;19926;-69
2023/07/16 07:34:56;;;;;;;;;;;18.50;99.90;;;;;;5126821;28;19920;-69
2023/07/16 07:37:23;;;;;;;;;;;18.50;99.90;;;;;;5119893;28;19995;-69
2023/07/16 07:39:52;;;;;;;;;;;18.50;99.90;;;;;;5120530;28;19991;-69
2023/07/16 07:42:19;;;;;;;;;;;18.50;99.90;;;;;;5126785;28;19920;-69
2023/07/16 07:44:45;;;;;;;;;;;18.60;99.90;;;;;;5126742;28;19987;-69
2023/07/16 07:47:13;;;;;;;;;;;18.60;99.90;;;;;;5125509;28;19994;-71
2023/07/16 07:49:40;;;;;;;;;;;18.60;99.90;;;;;;5126635;28;19950;-68
2023/07/16 07:52:07;;;;;;;;;;;18.60;99.90;;;;;;5117790;28;20067;-70
2023/07/16 07:54:34;;;;;;;;;;;18.60;99.90;;;;;;5123108;27;19934;-71
2023/07/16 07:57:01;;;;;;;;;;;18.70;99.90;;;;;;5121782;28;19984;-69
2023/07/16 07:59:28;;;;;;;;;;;18.70;99.90;;;;;;5112846;28;19979;-68
2023/07/16 08:01:54;;;;;;;;;;;18.70;99.90;;;;;;5125199;28;20189;-70
2023/07/16 08:04:23;;;;;;;;;;;18.70;99.90;;;;;;5125641;28;19955;-69
2023/07/16 08:06:49;;;;;;;;;;;18.70;99.90;;;;;;5125833;28;20028;-68
2023/07/16 08:09:16;;;;;;;;;;;18.70;99.90;;;;;;5126241;28;19999;-68
2023/07/16 08:11:43;;;;;;;;;;;18.70;99.90;;;;;;5122869;28;19919;-69
2023/07/16 08:14:09;;;;;;;;;;;18.80;99.90;;;;;;5126192;28;19983;-69
2023/07/16 08:16:36;;;;;;;;;;;18.80;99.90;;;;;;5125963;28;19920;-69
2023/07/16 08:19:03;;;;;;;;;;;18.80;99.90;;;;;;5126130;28;20403;-68
2023/07/16 08:21:30;;;;;;;;;;;18.80;99.90;;;;;;5125293;28;19983;-68
2023/07/16 08:23:57;;;;;;;;;;;18.80;99.90;;;;;;5125809;27;20049;-68
2023/07/16 08:26:24;;;;;;;;;;;18.80;99.90;;;;;;5125144;28;20160;-68
2023/07/16 08:28:50;;;;;;;;;;;18.80;99.90;;;;;;5125581;28;19990;-69
2023/07/16 08:31:17;;;;;;;;;;;18.90;99.90;;;;;;5125169;28;19987;-69
2023/07/16 08:33:44;;;;;;;;;;;19.00;99.90;;;;;;5125529;28;20251;-69
2023/07/16 08:36:10;;;;;;;;;;;19.00;99.90;;;;;;5125612;28;19989;-69
2023/07/16 08:38:38;;;;;;;;;;;19.10;99.90;;;;;;5125519;28;19926;-69
2023/07/16 08:41:05;;;;;;;;;;;19.20;99.90;;;;;;5124927;28;19926;-68
2023/07/16 08:43:33;;;;;;;;;;;19.20;99.90;;;;;;5125242;28;20231;-68
2023/07/16 08:46:01;;;;;;;;;;;19.30;99.90;;;;;;5125385;28;19923;-68
2023/07/16 08:48:29;;;;;;;;;;;19.40;99.90;;;;;;5125178;28;20203;-69
2023/07/16 08:50:56;;;;;;;;;;;19.50;99.90;;;;;;5123198;28;19939;-67
2023/07/16 08:53:23;;;;;;;;;;;19.50;99.90;;;;;;5124756;28;19920;-68
2023/07/16 08:55:51;;;;;;;;;;;19.50;99.90;;;;;;5124905;28;19919;-69
2023/07/16 08:58:18;;;;;;;;;;;19.50;99.90;;;;;;5125280;28;19920;-69
2023/07/16 09:00:45;;;;;;;;;;;19.50;99.90;;;;;;5124634;28;19926;-68
2023/07/16 09:03:13;;;;;;;;;;;19.50;99.90;;;;;;5125172;28;19920;-69
2023/07/16 09:05:39;;;;;;;;;;;19.50;99.90;;;;;;5125059;28;19920;-68
2023/07/16 09:08:06;;;;;;;;;;;19.60;99.90;;;;;;5125042;28;19919;-69
2023/07/16 09:10:33;;;;;;;;;;;19.70;99.90;;;;;;5122943;28;19926;-68
2023/07/16 09:13:01;;;;;;;;;;;19.80;99.90;;;;;;5124630;28;19920;-68
2023/07/16 09:15:29;;;;;;;;;;;19.90;99.90;;;;;;5124877;28;20129;-69
2023/07/16 09:17:56;;;;;;;;;;;20.00;99.90;;;;;;5124765;28;19983;-69
2023/07/16 09:20:23;;;;;;;;;;;20.00;99.90;;;;;;5124203;28;19983;-68
2023/07/16 09:22:50;;;;;;;;;;;20.10;99.90;;;;;;5115637;28;20081;-69
2023/07/16 09:25:17;;;;;;;;;;;20.10;99.90;;;;;;5104429;28;19920;-70
2023/07/16 09:27:44;;;;;;;;;;;20.10;99.90;;;;;;5105414;28;20154;-69
2023/07/16 09:30:16;;;;;;;;;;;20.10;99.90;;;;;;5105905;28;19983;-69
2023/07/16 09:32:43;;;;;;;;;;;20.20;99.90;;;;;;5124435;28;19920;-68
2023/07/16 09:35:10;;;;;;;;;;;20.30;99.90;;;;;;5124206;28;20225;-69
2023/07/16 09:37:37;;;;;;;;;;;20.50;99.90;;;;;;5123819;28;20223;-69
2023/07/16 09:40:06;;;;;;;;;;;20.70;99.90;;;;;;5123790;28;19919;-68
2023/07/16 09:42:34;;;;;;;;;;;20.80;99.90;;;;;;5124354;28;20359;-69
2023/07/16 09:45:02;;;;;;;;;;;20.80;99.90;;;;;;5124090;28;20328;-69
2023/07/16 09:47:30;;;;;;;;;;;20.80;99.90;;;;;;5124224;28;19983;-68
2023/07/16 09:49:57;;;;;;;;;;;20.90;99.90;;;;;;5124095;28;19919;-69
2023/07/16 09:52:25;;;;;;;;;;;21.00;99.90;;;;;;5124150;28;19961;-69
2023/07/16 09:54:53;;;;;;;;;;;21.10;99.90;;;;;;5123784;28;19926;-69
2023/07/16 09:57:22;;;;;;;;;;;21.30;99.90;;;;;;5123620;28;20119;-70
2023/07/16 09:59:51;;;;;;;;;;;21.40;99.90;;;;;;5124261;28;19919;-68
2023/07/16 10:02:18;;;;;;;;;;;21.70;99.90;;;;;;5123922;28;19920;-69
2023/07/16 10:04:46;;;;;;;;;;;21.80;99.90;;;;;;5123702;28;20371;-70
2023/07/16 10:07:21;;;;;;;;;;;21.90;99.90;;;;;;5124245;28;19986;-70
2023/07/16 10:09:52;;;;;;;;;;;22.00;99.90;;;;;;5123989;28;19923;-69
2023/07/16 10:12:19;;;;;;;;;;;22.00;99.90;;;;;;5123810;28;19983;-69
2023/07/16 10:14:46;;;;;;;;;;;22.00;99.90;;;;;;5123931;28;19920;-68
2023/07/16 10:17:14;;;;;;;;;;;21.90;99.90;;;;;;5124021;28;19926;-69
2023/07/16 10:19:57;;;;;;;;;;;21.90;99.90;;;;;;5123074;28;19978;-68
2023/07/16 10:22:34;;;;;;;;;;;21.90;99.90;;;;;;5113165;28;20160;-68
2023/07/16 10:25:01;;;;;;;;;;;21.90;99.90;;;;;;5123770;28;19973;-68
2023/07/16 10:27:29;;;;;;;;;;;21.90;99.90;;;;;;5123982;28;19919;-68
2023/07/16 10:29:56;;;;;;;;;;;21.90;99.90;;;;;;5108577;28;19989;-69
2023/07/16 10:32:22;;;;;;;;;;;21.90;99.90;;;;;;5103403;28;20147;-67
2023/07/16 10:34:49;;;;;;;;;;;21.90;99.90;;;;;;5103006;28;19921;-68
2023/07/16 10:37:17;;;;;;;;;;;21.90;99.90;;;;;;5108112;28;20000;-68
2023/07/16 10:39:47;;;;;;;;;;;21.90;99.90;;;;;;5123937;28;19926;-68
2023/07/16 10:42:14;;;;;;;;;;;22.00;99.90;;;;;;5123177;28;20118;-68
2023/07/16 10:44:41;;;;;;;;;;;22.20;99.90;;;;;;5123706;28;19926;-69
2023/07/16 10:47:08;;;;;;;;;;;22.40;99.90;;;;;;5123708;28;19956;-69
2023/07/16 10:49:35;;;;;;;;;;;22.50;99.90;;;;;;5126893;28;19926;-69
2023/07/16 10:52:02;;;;;;;;;;;22.70;99.90;;;;;;5127165;28;19983;-69
2023/07/16 10:54:30;;;;;;;;;;;22.70;99.90;;;;;;5127489;28;19999;-69
2023/07/16 10:56:57;;;;;;;;;;;22.70;99.90;;;;;;5127280;28;19920;-68
2023/07/16 10:59:25;;;;;;;;;;;22.60;99.90;;;;;;5127697;28;19982;-67
2023/07/16 11:01:52;;;;;;;;;;;22.60;99.90;;;;;;5126578;28;19919;-69
2023/07/16 11:04:19;;;;;;;;;;;22.60;99.90;;;;;;5127498;28;19919;-69
2023/07/16 11:06:45;;;;;;;;;;;22.60;99.90;;;;;;5127194;28;19988;-69
2023/07/16 11:09:12;;;;;;;;;;;22.70;99.90;;;;;;5126961;28;20230;-68
2023/07/16 11:11:40;;;;;;;;;;;22.60;99.90;;;;;;5106295;28;19919;-68
2023/07/16 11:14:07;;;;;;;;;;;22.70;99.90;;;;;;5106632;28;19962;-68
2023/07/16 11:16:35;;;;;;;;;;;22.80;99.90;;;;;;5106459;28;19969;-68
2023/07/16 11:19:05;;;;;;;;;;;22.80;99.90;;;;;;5106803;28;19923;-68
2023/07/16 11:21:31;;;;;;;;;;;22.90;99.90;;;;;;5106122;28;19983;-67
2023/07/16 11:24:08;;;;;;;;;;;23.00;99.90;;;;;;5121887;28;19987;-69
2023/07/16 11:26:35;;;;;;;;;;;23.10;99.90;;;;;;5121568;28;19919;-67
2023/07/16 11:29:12;;;;;;;;;;;23.20;99.90;;;;;;5115742;28;19943;-68
2023/07/16 11:31:39;;;;;;;;;;;23.40;99.90;;;;;;5116914;28;19927;-69
2023/07/16 11:34:07;;;;;;;;;;;23.60;99.90;;;;;;5106835;28;19954;-68
2023/07/16 11:36:34;;;;;;;;;;;23.70;99.90;;;;;;5120460;28;20200;-68
2023/07/16 11:39:03;;;;;;;;;;;23.90;99.90;;;;;;5126892;28;19983;-69
2023/07/16 11:41:30;;;;;;;;;;;24.00;99.90;;;;;;5126091;28;20131;-69
2023/07/16 11:43:59;;;;;;;;;;;24.10;99.90;;;;;;5126658;28;19954;-69
2023/07/16 11:46:37;;;;;;;;;;;24.20;99.90;;;;;;5126652;28;19986;-68
2023/07/16 11:49:04;;;;;;;;;;;24.30;99.90;;;;;;5126540;28;19920;-68
2023/07/16 11:51:31;;;;;;;;;;;24.40;99.90;;;;;;5125301;28;19926;-68
2023/07/16 11:53:58;;;;;;;;;;;24.40;99.90;;;;;;5125742;28;20215;-69
2023/07/16 11:56:24;;;;;;;;;;;24.30;99.90;;;;;;5126272;28;19920;-68
2023/07/16 11:58:51;;;;;;;;;;;24.00;99.90;;;;;;5126102;28;20208;-68
2023/07/16 12:01:18;;;;;;;;;;;23.80;99.90;;;;;;5124779;28;19983;-68
2023/07/16 12:03:46;;;;;;;;;;;23.60;99.90;;;;;;5123206;28;19931;-68
2023/07/16 12:06:12;;;;;;;;;;;23.60;99.90;;;;;;5126291;28;19919;-69
2023/07/16 12:08:39;;;;;;;;;;;23.80;99.90;;;;;;5125783;28;19920;-69
2023/07/16 12:11:07;;;;;;;;;;;24.00;99.90;;;;;;5125511;28;19920;-70
2023/07/16 12:13:33;;;;;;;;;;;24.40;99.90;;;;;;5125718;28;20208;-68
2023/07/16 12:16:00;;;;;;;;;;;24.70;99.90;;;;;;5125937;28;19979;-69
2023/07/16 12:18:27;;;;;;;;;;;25.00;99.90;;;;;;5125938;28;19920;-68
2023/07/16 12:20:56;;;;;;;;;;;25.20;99.90;;;;;;5125321;28;20115;-69
2023/07/16 12:23:23;;;;;;;;;;;25.30;99.90;;;;;;5125161;28;20204;-68
2023/07/16 12:25:50;;;;;;;;;;;25.50;99.90;;;;;;5125539;28;19986;-69
2023/07/16 12:28:16;;;;;;;;;;;25.60;99.90;;;;;;5125801;28;20164;-69
2023/07/16 12:30:43;;;;;;;;;;;25.50;99.90;;;;;;5125085;28;19920;-69
2023/07/16 12:33:09;;;;;;;;;;;25.50;99.90;;;;;;5125745;28;20152;-69
2023/07/16 12:35:36;;;;;;;;;;;25.70;99.90;;;;;;5116414;28;19982;-70
2023/07/16 12:38:04;;;;;;;;;;;25.70;99.90;;;;;;5113880;28;19982;-68
2023/07/16 12:40:31;;;;;;;;;;;25.80;99.90;;;;;;5124672;28;19920;-69
2023/07/16 12:42:58;;;;;;;;;;;25.90;99.90;;;;;;5118184;28;20278;-69
2023/07/16 12:48:33;;;;;;;;;;;25.70;99.90;;;;;;5104501;28;19949;-68
2023/07/16 12:51:00;;;;;;;;;;;25.50;99.90;;;;;;5123114;28;20010;-69
2023/07/16 12:53:28;;;;;;;;;;;25.50;99.90;;;;;;5116880;28;19980;-69
2023/07/16 12:55:54;;;;;;;;;;;25.40;99.90;;;;;;5104638;28;19927;-69
2023/07/16 12:58:21;;;;;;;;;;;25.30;99.90;;;;;;5102250;28;19934;-68
2023/07/16 13:00:48;;;;;;;;;;;25.20;99.90;;;;;;5104219;28;19991;-69
2023/07/16 13:03:16;;;;;;;;;;;25.00;99.90;;;;;;5123274;28;19978;-69
2023/07/16 13:05:43;;;;;;;;;;;25.00;99.90;;;;;;5122558;28;19980;-69
2023/07/16 13:08:10;;;;;;;;;;;24.90;99.90;;;;;;5122528;28;19919;-70
2023/07/16 13:10:38;;;;;;;;;;;24.90;99.90;;;;;;5123871;28;19979;-69
2023/07/16 13:13:04;;;;;;;;;;;24.90;99.90;;;;;;5123890;28;19942;-69
2023/07/16 13:15:31;;;;;;;;;;;24.90;99.90;;;;;;5124827;28;19983;-69
2023/07/16 13:17:57;;;;;;;;;;;25.00;99.90;;;;;;5124728;28;19986;-69
2023/07/16 13:20:24;;;;;;;;;;;25.00;99.90;;;;;;5117716;28;19926;-68
2023/07/16 13:22:51;;;;;;;;;;;25.00;99.90;;;;;;5124686;28;19926;-69
2023/07/16 13:25:18;;;;;;;;;;;24.90;99.90;;;;;;5122822;28;19919;-70
2023/07/16 13:27:46;;;;;;;;;;;24.80;99.90;;;;;;5124401;28;19919;-68
2023/07/16 13:30:13;;;;;;;;;;;24.90;99.90;;;;;;5123965;28;19928;-69
2023/07/16 13:32:40;;;;;;;;;;;24.90;99.90;;;;;;5124307;28;19924;-69
2023/07/16 13:35:06;;;;;;;;;;;25.00;99.90;;;;;;5124230;28;19926;-68
2023/07/16 13:37:33;;;;;;;;;;;25.10;99.90;;;;;;5124280;28;20379;-69
2023/07/16 13:40:00;;;;;;;;;;;25.10;99.90;;;;;;5122558;28;19978;-70
2023/07/16 13:42:27;;;;;;;;;;;25.10;99.90;;;;;;5122781;28;19920;-69
2023/07/16 13:44:55;;;;;;;;;;;25.10;99.90;;;;;;5123589;28;20352;-69
2023/07/16 13:47:22;;;;;;;;;;;25.00;99.90;;;;;;5124305;28;19957;-71
2023/07/16 13:49:48;;;;;;;;;;;25.00;99.90;;;;;;5124194;28;19983;-69
2023/07/16 13:52:15;;;;;;;;;;;24.80;99.90;;;;;;5123768;28;19927;-69
2023/07/16 13:54:41;;;;;;;;;;;24.90;99.90;;;;;;5115422;28;19927;-68
2023/07/16 13:57:08;;;;;;;;;;;24.90;99.90;;;;;;5112437;28;19984;-69
2023/07/16 13:59:35;;;;;;;;;;;25.10;99.90;;;;;;5116786;28;19983;-69
2023/07/16 14:02:04;;;;;;;;;;;25.30;99.90;;;;;;5123255;28;19956;-69
2023/07/16 14:04:30;;;;;;;;;;;25.60;99.90;;;;;;5102018;28;19967;-71
2023/07/16 14:06:57;;;;;;;;;;;26.10;99.90;;;;;;5103696;28;19988;-69
2023/07/16 14:09:24;;;;;;;;;;;26.30;99.90;;;;;;5103591;28;20003;-69
2023/07/16 14:11:50;;;;;;;;;;;26.50;99.90;;;;;;5102653;28;19980;-69
2023/07/16 14:14:17;;;;;;;;;;;26.80;99.90;;;;;;5103540;28;19983;-69
2023/07/16 14:16:44;;;;;;;;;;;27.00;99.90;;;;;;5103403;28;19983;-69
2023/07/16 14:19:12;;;;;;;;;;;27.20;99.90;;;;;;5105975;28;19926;-68